Time;durP1;ratioP1;P1;durP2;ratioP2;P2;SDS_P1;SDS_P2;PMS_P1;PMS_P2;Temp;Humidity;BMP_temperature;BMP_pressure;BME280_temperature;BME280_humidity;BME280_pressure;Samples;Min_cycle;Max_cycle;Signal;HPM_P1;HPM_P2
2021/11/02 00:00:52;;;;;;;61.60;42.55;;;;;;;6.39;100.00;97833.97;2096167;28;20218;-76
2021/11/02 00:01:58;;;;;;;61.72;41.65;;;;;;;6.33;100.00;97824.56;2096458;28;20226;-77
2021/11/02 00:03:00;;;;;;;65.78;43.13;;;;;;;6.39;100.00;97833.97;2096098;28;20218;-76
2021/11/02 00:04:03;;;;;;;67.13;43.13;;;;;;;6.39;100.00;97826.81;2087651;28;20627;-76
2021/11/02 00:05:06;;;;;;;63.75;41.90;;;;;;;6.41;100.00;97832.59;2087875;28;20223;-76
2021/11/02 00:06:11;;;;;;;69.10;43.08;;;;;;;6.41;100.00;97829.94;2095740;28;20226;-76
2021/11/02 00:07:11;;;;;;;68.32;43.65;;;;;;;6.44;100.00;97826.72;2096765;28;20229;-76
2021/11/02 00:08:16;;;;;;;64.93;44.27;;;;;;;6.47;100.00;97827.97;2095280;28;20316;-76
2021/11/02 00:09:22;;;;;;;66.43;43.60;;;;;;;6.51;100.00;97828.94;2096170;28;20226;-76
2021/11/02 00:10:26;;;;;;;70.13;43.72;;;;;;;6.62;100.00;97827.63;2098115;28;20222;-76
2021/11/02 00:11:29;;;;;;;66.43;43.17;;;;;;;6.79;100.00;97833.06;2096765;28;20622;-76
2021/11/02 00:12:31;;;;;;;67.03;44.42;;;;;;;6.83;100.00;97821.84;2095083;28;20220;-74
2021/11/02 00:13:38;;;;;;;64.57;43.22;;;;;;;6.80;100.00;97818.72;2087808;28;20226;-75
2021/11/02 00:14:41;;;;;;;63.78;43.42;;;;;;;6.91;100.00;97818.47;2102148;28;20225;-75
2021/11/02 00:15:50;;;;;;;68.10;44.38;;;;;;;6.87;100.00;97809.56;2096000;28;20655;-74
2021/11/02 00:16:57;;;;;;;68.63;43.55;;;;;;;6.82;100.00;97801.72;2095656;28;20253;-74
2021/11/02 00:18:01;;;;;;;66.43;42.53;;;;;;;6.79;100.00;97809.22;2096630;28;20274;-74
2021/11/02 00:19:07;;;;;;;74.10;44.05;;;;;;;6.76;100.00;97817.75;2095507;28;20229;-74
2021/11/02 00:20:12;;;;;;;66.25;42.45;;;;;;;6.74;100.00;97811.97;2103999;28;20237;-74
2021/11/02 00:21:15;;;;;;;72.40;43.97;;;;;;;6.75;100.00;97810.88;2105068;28;20634;-74
2021/11/02 00:22:17;;;;;;;78.25;45.58;;;;;;;6.74;100.00;97809.31;2104287;28;20213;-74
2021/11/02 00:23:19;;;;;;;63.30;42.90;;;;;;;6.75;100.00;97816.19;2095959;28;20297;-75
2021/11/02 00:24:39;;;;;;;66.32;44.22;;;;;;;6.78;100.00;97809.50;2104467;28;20255;-75
2021/11/02 00:25:42;;;;;;;69.72;43.85;;;;;;;6.78;100.00;97807.66;2097782;28;20230;-74
2021/11/02 00:26:43;;;;;;;72.60;44.85;;;;;;;6.84;100.00;97800.34;2096691;28;20226;-74
2021/11/02 00:27:45;;;;;;;71.43;43.42;;;;;;;6.84;100.00;97804.84;2095592;28;20735;-74
2021/11/02 00:28:47;;;;;;;68.70;43.08;;;;;;;6.82;100.00;97799.88;2096067;28;20242;-74
2021/11/02 00:29:50;;;;;;;72.22;44.58;;;;;;;6.83;100.00;97805.94;2095910;28;20218;-74
2021/11/02 00:30:53;;;;;;;69.97;43.80;;;;;;;6.83;100.00;97800.66;2095986;28;20222;-75
2021/11/02 00:31:54;;;;;;;67.57;44.05;;;;;;;6.86;100.00;97805.34;2095452;28;20711;-75
2021/11/02 00:32:57;;;;;;;70.57;45.03;;;;;;;6.87;100.00;97802.41;2087236;28;20578;-74
2021/11/02 00:34:00;;;;;;;74.82;45.40;;;;;;;6.87;100.00;97793.66;2092872;28;20229;-75
2021/11/02 00:35:04;;;;;;;65.75;44.47;;;;;;;6.87;100.00;97791.03;2095803;28;20248;-75
2021/11/02 00:36:06;;;;;;;71.65;43.30;;;;;;;6.90;100.00;97793.06;2087564;28;20222;-74
2021/11/02 00:37:09;;;;;;;66.93;44.38;;;;;;;6.91;100.00;97799.91;2097546;28;20230;-75
2021/11/02 00:38:11;;;;;;;67.82;43.10;;;;;;;6.90;100.00;97793.84;2095714;28;20230;-74
2021/11/02 00:39:14;;;;;;;67.20;43.70;;;;;;;6.91;100.00;97789.31;2096010;28;20230;-75
2021/11/02 00:40:19;;;;;;;66.72;43.85;;;;;;;6.94;100.00;97788.69;2096681;28;20231;-74
2021/11/02 00:41:22;;;;;;;70.13;45.35;;;;;;;6.93;100.00;97795.09;2096625;28;20581;-75
2021/11/02 00:42:33;;;;;;;66.32;43.17;;;;;;;6.93;100.00;97789.78;2096210;28;20304;-74
2021/11/02 00:43:35;;;;;;;71.18;45.00;;;;;;;6.94;100.00;97794.78;2096564;28;20230;-74
2021/11/02 00:44:38;;;;;;;68.38;44.55;;;;;;;6.95;100.00;97796.38;2095792;28;20289;-74
2021/11/02 00:45:41;;;;;;;69.13;43.88;;;;;;;6.97;100.00;97796.06;2095515;28;20226;-74
2021/11/02 00:46:45;;;;;;;68.25;43.47;;;;;;;6.99;100.00;97799.19;2097883;28;20249;-74
2021/11/02 00:47:49;;;;;;;63.50;42.38;;;;;;;6.97;100.00;97790.75;2095972;28;20222;-75
2021/11/02 00:48:51;;;;;;;61.53;42.58;;;;;;;6.96;100.00;97797.16;2096387;28;20590;-74
2021/11/02 00:49:53;;;;;;;73.30;43.92;;;;;;;6.95;100.00;97784.97;2097149;28;20218;-74
2021/11/02 00:50:55;;;;;;;70.35;43.85;;;;;;;6.94;100.00;97791.34;2097243;28;20696;-74
2021/11/02 00:51:56;;;;;;;71.95;43.70;;;;;;;6.95;100.00;97787.59;2089125;28;20218;-74
2021/11/02 00:53:00;;;;;;;67.77;43.53;;;;;;;6.94;100.00;97784.19;2097381;28;20305;-74
2021/11/02 00:54:01;;;;;;;65.03;43.08;;;;;;;6.98;100.00;97784.38;2097086;28;20226;-75
2021/11/02 00:55:03;;;;;;;70.97;44.53;;;;;;;6.94;100.00;97784.19;2097322;28;20222;-74
2021/11/02 00:56:05;;;;;;;73.05;44.55;;;;;;;6.96;100.00;97786.53;2097117;28;20222;-74
2021/11/02 00:57:07;;;;;;;71.82;44.38;;;;;;;6.97;100.00;97777.50;2089243;28;20249;-74
2021/11/02 00:58:09;;;;;;;74.18;42.75;;;;;;;6.96;100.00;97783.91;2105364;28;20304;-74
2021/11/02 00:59:11;;;;;;;71.10;44.63;;;;;;;6.93;100.00;97779.97;2105444;28;20695;-74
2021/11/02 01:00:15;;;;;;;69.95;44.17;;;;;;;6.97;100.00;97788.13;2105841;28;20652;-74
2021/11/02 01:01:17;;;;;;;70.50;43.60;;;;;;;6.97;100.00;97786.25;2113584;28;20240;-74
2021/11/02 01:02:22;;;;;;;75.07;45.00;;;;;;;6.96;100.00;97786.53;2096836;28;20574;-74
2021/11/02 01:03:24;;;;;;;74.75;43.38;;;;;;;6.98;100.00;97789.66;2105509;28;20225;-74
2021/11/02 01:04:26;;;;;;;69.88;43.97;;;;;;;6.94;100.00;97778.88;2113730;28;20576;-74
2021/11/02 01:05:28;;;;;;;67.93;42.45;;;;;;;6.96;100.00;97783.91;2097155;28;20234;-74
2021/11/02 01:06:32;;;;;;;73.97;44.03;;;;;;;6.95;100.00;97780.47;2097296;28;20672;-74
2021/11/02 01:07:35;;;;;;;68.88;43.85;;;;;;;6.95;100.00;97782.31;2097936;28;20226;-74
2021/11/02 01:08:37;;;;;;;66.32;43.10;;;;;;;6.95;100.00;97782.31;2102546;28;20699;-74
2021/11/02 01:09:41;;;;;;;71.97;43.22;;;;;;;6.92;100.00;97773.09;2090386;28;20226;-74
2021/11/02 01:10:47;;;;;;;72.63;43.00;;;;;;;6.93;100.00;97779.19;2097325;28;20591;-75
2021/11/02 01:11:48;;;;;;;71.78;44.58;;;;;;;6.92;100.00;97777.63;2098035;28;20606;-74
2021/11/02 01:12:53;;;;;;;70.90;44.08;;;;;;;6.92;100.00;97767.00;2097922;28;20284;-75
2021/11/02 01:13:54;;;;;;;69.07;42.97;;;;;;;6.92;100.00;97772.31;2097596;28;20571;-74
2021/11/02 01:14:59;;;;;;;68.40;44.43;;;;;;;6.91;100.00;97770.75;2097842;28;20309;-74
2021/11/02 01:16:01;;;;;;;69.05;44.17;;;;;;;6.90;100.00;97766.53;2097120;28;20970;-75
2021/11/02 01:17:05;;;;;;;70.95;44.50;;;;;;;6.86;100.00;97757.63;2097097;28;21065;-74
2021/11/02 01:18:08;;;;;;;67.30;45.50;;;;;;;6.85;100.00;97764.78;2096674;28;20226;-74
2021/11/02 01:19:10;;;;;;;75.85;43.20;;;;;;;6.83;100.00;97761.66;2089000;28;20677;-74
2021/11/02 01:20:13;;;;;;;72.25;43.08;;;;;;;6.84;100.00;97771.19;2093916;28;21699;-74
2021/11/02 01:21:16;;;;;;;65.28;43.83;;;;;;;6.82;100.00;97759.31;2105374;28;20245;-74
2021/11/02 01:22:19;;;;;;;68.10;42.38;;;;;;;6.82;100.00;97760.09;2096828;28;20225;-74
2021/11/02 01:23:21;;;;;;;69.68;43.58;;;;;;;6.83;100.00;97763.53;2105571;28;20217;-74
2021/11/02 01:24:24;;;;;;;77.15;44.08;;;;;;;6.84;100.00;97765.88;2104503;28;20237;-74
2021/11/02 01:25:25;;;;;;;62.40;42.47;;;;;;;6.83;100.00;97760.88;2097078;28;20253;-74
2021/11/02 01:26:27;;;;;;;65.43;43.80;;;;;;;6.86;100.00;97762.91;2097054;28;20261;-74
2021/11/02 01:27:28;;;;;;;68.40;42.35;;;;;;;6.87;100.00;97757.34;2097055;28;20229;-74
2021/11/02 01:28:30;;;;;;;68.00;42.77;;;;;;;6.86;100.00;97753.09;2097060;28;20225;-74
2021/11/02 01:29:31;;;;;;;66.38;42.42;;;;;;;6.87;100.00;97756.56;2105490;28;20225;-74
2021/11/02 01:30:33;;;;;;;63.17;41.65;;;;;;;6.89;100.00;97759.69;2105306;28;20253;-75
2021/11/02 01:31:39;;;;;;;60.97;41.00;;;;;;;6.90;100.00;97766.53;2105438;28;20221;-75
2021/11/02 01:32:43;;;;;;;61.75;41.45;;;;;;;6.91;100.00;97760.16;2104851;28;20582;-75
2021/11/02 01:33:46;;;;;;;61.05;42.10;;;;;;;6.90;100.00;97764.66;2097287;28;20312;-75
2021/11/02 01:34:48;;;;;;;60.30;41.53;;;;;;;6.89;100.00;97757.81;2096982;28;20224;-74
2021/11/02 01:35:49;;;;;;;63.90;42.03;;;;;;;6.92;100.00;97759.06;2096678;28;20219;-74
2021/11/02 01:36:52;;;;;;;67.13;41.63;;;;;;;6.94;100.00;97765.63;2105271;28;20251;-75
2021/11/02 01:37:54;;;;;;;58.67;39.75;;;;;;;6.93;100.00;97760.63;2096725;28;20290;-74
2021/11/02 01:38:58;;;;;;;62.30;41.85;;;;;;;6.89;100.00;97759.69;2096856;28;20782;-74
2021/11/02 01:40:00;;;;;;;63.45;41.85;;;;;;;6.88;100.00;97755.47;2088950;28;20229;-75
2021/11/02 01:41:03;;;;;;;60.17;40.78;;;;;;;6.90;100.00;97753.28;2094036;28;20226;-75
2021/11/02 01:42:05;;;;;;;64.22;40.65;;;;;;;6.87;100.00;97753.91;2101345;28;20691;-75
2021/11/02 01:43:07;;;;;;;64.43;41.03;;;;;;;6.89;100.00;97743.78;2097098;28;20224;-75
2021/11/02 01:44:08;;;;;;;55.22;38.45;;;;;;;6.90;100.00;97751.41;2102964;28;20312;-74
2021/11/02 01:45:14;;;;;;;56.08;39.15;;;;;;;6.96;100.00;97750.22;2105156;28;20592;-74
2021/11/02 01:46:21;;;;;;;60.45;41.85;;;;;;;6.93;100.00;97755.31;2105286;28;20217;-75
2021/11/02 01:47:24;;;;;;;66.78;41.35;;;;;;;6.93;100.00;97750.03;2104802;28;20294;-74
2021/11/02 01:48:25;;;;;;;65.25;40.63;;;;;;;6.91;100.00;97744.25;2096439;28;20221;-75
2021/11/02 01:49:29;;;;;;;62.50;40.47;;;;;;;6.87;100.00;97746.72;2097120;28;20317;-75
2021/11/02 01:50:31;;;;;;;67.18;42.83;;;;;;;6.86;100.00;97741.72;2096933;28;20218;-75
2021/11/02 01:51:34;;;;;;;54.80;40.20;;;;;;;6.85;100.00;97751.53;2105263;28;20241;-75
2021/11/02 01:52:37;;;;;;;61.83;40.63;;;;;;;6.83;100.00;97739.66;2104419;28;20622;-74
2021/11/02 01:53:39;;;;;;;65.00;40.97;;;;;;;6.84;100.00;97736.72;2090418;28;20242;-75
2021/11/02 01:54:40;;;;;;;61.33;42.67;;;;;;;6.84;100.00;97738.59;2088164;28;20321;-74
2021/11/02 01:55:42;;;;;;;59.77;41.50;;;;;;;6.84;100.00;97730.63;2096811;28;20242;-75
2021/11/02 01:56:48;;;;;;;60.22;42.10;;;;;;;6.84;100.00;97734.06;2096667;28;20623;-75
2021/11/02 01:57:50;;;;;;;62.63;41.40;;;;;;;6.82;100.00;97722.22;2088937;28;20253;-75
2021/11/02 01:58:54;;;;;;;60.55;41.13;;;;;;;6.81;100.00;97716.13;2088654;28;20218;-74
2021/11/02 02:00:06;;;;;;;58.88;41.92;;;;;;;6.79;100.00;97715.66;2105781;28;20228;-75
2021/11/02 02:01:19;;;;;;;58.92;39.45;;;;;;;6.77;100.00;97707.97;2109723;28;20228;-75
2021/11/02 02:02:27;;;;;;;60.22;40.75;;;;;;;6.77;100.00;97707.19;2096668;28;20742;-75
2021/11/02 02:03:34;;;;;;;59.70;40.80;;;;;;;6.78;100.00;97706.13;2088966;28;20223;-75
2021/11/02 02:04:48;;;;;;;56.20;39.40;;;;;;;6.79;100.00;97708.47;2096582;28;20709;-75
2021/11/02 02:05:55;;;;;;;61.80;41.92;;;;;;;6.79;100.00;97705.84;2098305;28;20214;-74
2021/11/02 02:07:11;;;;;;;57.20;39.28;;;;;;;6.83;100.00;97705.22;2104772;28;20248;-75
2021/11/02 02:08:17;;;;;;;61.50;41.22;;;;;;;6.83;100.00;97699.91;2097569;28;20763;-75
2021/11/02 02:09:24;;;;;;;59.25;41.03;;;;;;;6.84;100.00;97701.47;2097448;28;20230;-74
2021/11/02 02:10:32;;;;;;;56.53;40.03;;;;;;;6.84;100.00;97707.56;2096183;28;20230;-74
2021/11/02 02:11:42;;;;;;;63.22;41.60;;;;;;;6.82;100.00;97698.34;2097826;28;20229;-75
2021/11/02 02:12:53;;;;;;;56.40;39.33;;;;;;;6.83;100.00;97705.22;2096527;28;20225;-76
2021/11/02 02:14:09;;;;;;;65.20;40.78;;;;;;;6.83;100.00;97699.91;2094846;28;20687;-75
2021/11/02 02:15:13;;;;;;;55.78;38.92;;;;;;;6.82;100.00;97695.69;2089813;28;20226;-74
2021/11/02 02:16:19;;;;;;;58.60;39.35;;;;;;;6.85;100.00;97700.38;2088683;28;20297;-75
2021/11/02 02:17:29;;;;;;;56.47;38.42;;;;;;;6.85;100.00;97693.22;2092937;28;20237;-75
2021/11/02 02:18:33;;;;;;;55.50;39.05;;;;;;;6.87;100.00;97701.66;2089993;28;20306;-74
2021/11/02 02:19:53;;;;;;;59.28;39.40;;;;;;;6.89;100.00;97698.69;2097009;28;20234;-74
2021/11/02 02:21:08;;;;;;;60.67;40.25;;;;;;;6.89;100.00;97691.53;2096074;28;20230;-74
2021/11/02 02:22:32;;;;;;;52.08;38.50;;;;;;;6.94;100.00;97693.25;2092300;28;20237;-74
2021/11/02 02:23:48;;;;;;;51.40;38.63;;;;;;;6.94;100.00;97699.34;2092815;28;20226;-75
2021/11/02 02:25:07;;;;;;;60.00;39.13;;;;;;;6.91;100.00;97691.22;2098538;28;20779;-75
2021/11/02 02:26:13;;;;;;;56.92;39.28;;;;;;;6.92;100.00;97698.09;2104098;28;20742;-75
2021/11/02 02:27:24;;;;;;;56.05;38.95;;;;;;;6.91;100.00;97693.88;2105020;28;20225;-75
2021/11/02 02:28:31;;;;;;;58.47;38.70;;;;;;;6.90;100.00;97693.09;2104339;28;20295;-74
2021/11/02 02:29:36;;;;;;;52.70;38.67;;;;;;;6.91;100.00;97696.53;2097300;28;20757;-75
2021/11/02 02:30:43;;;;;;;55.00;38.08;;;;;;;6.88;100.00;97691.84;2096845;28;20784;-75
2021/11/02 02:31:50;;;;;;;55.75;38.55;;;;;;;6.86;100.00;97692.13;2097581;28;20225;-75
2021/11/02 02:32:53;;;;;;;53.30;37.63;;;;;;;6.87;100.00;97687.63;2096776;28;20222;-74
2021/11/02 02:33:57;;;;;;;50.42;37.75;;;;;;;6.86;100.00;97691.34;2096931;28;20226;-75
2021/11/02 02:35:11;;;;;;;51.10;37.80;;;;;;;6.87;100.00;97696.34;2097908;28;20230;-74
2021/11/02 02:36:17;;;;;;;48.90;37.70;;;;;;;6.88;100.00;97703.22;2097003;28;20252;-75
2021/11/02 02:37:34;;;;;;;54.47;37.92;;;;;;;6.93;100.00;97699.66;2097130;28;20312;-75
2021/11/02 02:38:40;;;;;;;53.05;38.08;;;;;;;6.93;100.00;97705.72;2096507;28;20229;-75
2021/11/02 02:39:42;;;;;;;48.90;36.30;;;;;;;6.96;100.00;97704.34;2088543;28;20226;-75
2021/11/02 02:40:50;;;;;;;50.15;38.22;;;;;;;6.97;100.00;97701.41;2095456;28;20222;-75
2021/11/02 02:41:52;;;;;;;50.40;37.78;;;;;;;6.97;100.00;97696.09;2092299;28;20672;-74
2021/11/02 02:42:56;;;;;;;53.30;38.80;;;;;;;6.98;100.00;97696.88;2096595;28;20230;-75
2021/11/02 02:43:59;;;;;;;51.28;37.67;;;;;;;6.98;100.00;97699.53;2104857;28;20232;-75
2021/11/02 02:45:01;;;;;;;52.85;37.28;;;;;;;6.97;100.00;97697.97;2104623;28;20221;-75
2021/11/02 02:46:04;;;;;;;52.05;38.30;;;;;;;6.95;100.00;97697.47;2096654;28;20222;-75
2021/11/02 02:47:09;;;;;;;48.78;37.30;;;;;;;6.97;100.00;97700.59;2096265;28;20248;-74
2021/11/02 02:48:12;;;;;;;61.70;37.70;;;;;;;6.96;100.00;97701.69;2089490;28;20288;-75
2021/11/02 02:49:15;;;;;;;50.22;37.55;;;;;;;6.95;100.00;97703.56;2096780;28;20675;-74
2021/11/02 02:50:19;;;;;;;57.33;39.20;;;;;;;6.96;100.00;97696.41;2088907;28;20222;-75
2021/11/02 02:51:23;;;;;;;51.42;37.33;;;;;;;6.96;100.00;97697.19;2088534;28;20227;-75
2021/11/02 02:52:28;;;;;;;58.10;36.85;;;;;;;6.97;100.00;97697.97;2088356;28;20325;-75
2021/11/02 02:53:33;;;;;;;50.03;36.40;;;;;;;6.98;100.00;97700.31;2090846;28;20304;-75
2021/11/02 02:54:35;;;;;;;47.88;36.47;;;;;;;6.98;100.00;97697.66;2088895;28;20219;-74
2021/11/02 02:55:38;;;;;;;50.72;36.33;;;;;;;7.00;100.00;97707.94;2086969;28;20711;-74
2021/11/02 02:56:45;;;;;;;48.60;36.88;;;;;;;6.98;100.00;97699.53;2089752;28;20230;-74
2021/11/02 02:57:48;;;;;;;49.40;35.40;;;;;;;7.00;100.00;97702.63;2103483;28;20275;-75
2021/11/02 02:58:55;;;;;;;51.45;36.90;;;;;;;6.99;100.00;97698.44;2096315;28;20229;-75
2021/11/02 03:00:00;;;;;;;48.35;35.75;;;;;;;7.02;100.00;97697.81;2093107;28;20265;-74
2021/11/02 03:01:01;;;;;;;53.97;37.00;;;;;;;7.03;100.00;97699.38;2096620;28;20218;-75
2021/11/02 03:02:05;;;;;;;48.88;36.20;;;;;;;7.04;100.00;97695.66;2096429;28;20253;-75
2021/11/02 03:03:07;;;;;;;49.60;36.38;;;;;;;7.02;100.00;97690.63;2090310;28;20246;-75
2021/11/02 03:04:14;;;;;;;46.60;35.05;;;;;;;7.01;100.00;97691.72;2103977;28;20683;-75
2021/11/02 03:05:18;;;;;;;49.58;36.95;;;;;;;7.02;100.00;97681.91;2104533;28;20722;-75
2021/11/02 03:06:29;;;;;;;50.53;36.78;;;;;;;7.02;100.00;97687.19;2104646;28;20583;-75
2021/11/02 03:07:32;;;;;;;53.28;36.90;;;;;;;6.99;100.00;97688.59;2087058;28;20253;-75
2021/11/02 03:08:38;;;;;;;49.17;36.87;;;;;;;6.98;100.00;97697.66;2084927;28;20247;-75
2021/11/02 03:09:42;;;;;;;49.00;36.75;;;;;;;6.96;100.00;97691.88;2096547;28;20907;-75
2021/11/02 03:10:47;;;;;;;48.55;36.50;;;;;;;6.94;100.00;97691.38;2095932;28;20248;-75
2021/11/02 03:11:49;;;;;;;52.88;37.40;;;;;;;6.94;100.00;97691.38;2104383;28;20252;-75
2021/11/02 03:12:54;;;;;;;46.97;36.35;;;;;;;6.94;100.00;97690.59;2104624;28;20221;-75
2021/11/02 03:13:57;;;;;;;46.95;36.38;;;;;;;6.92;100.00;97690.13;2096170;28;20217;-74
2021/11/02 03:15:14;;;;;;;50.20;37.17;;;;;;;6.94;100.00;97695.91;2096632;28;20272;-75
2021/11/02 03:16:16;;;;;;;50.22;36.55;;;;;;;6.96;100.00;97689.22;2097907;28;20221;-74
2021/11/02 03:17:25;;;;;;;51.33;36.58;;;;;;;6.98;100.00;97683.63;2104704;28;20217;-75
2021/11/02 03:18:49;;;;;;;47.50;36.70;;;;;;;6.95;100.00;97685.00;2104148;28;20228;-75
2021/11/02 03:20:40;;;;;;;51.42;36.22;;;;;;;7.04;100.00;97677.09;2104370;28;20689;-74
2021/11/02 03:43:47;;;;;;;49.33;34.75;;;;;;;6.98;100.00;97676.44;2103559;28;20691;-75
2021/11/02 03:45:05;;;;;;;47.50;35.90;;;;;;;6.97;100.00;97676.75;2089303;28;20253;-75
2021/11/02 03:48:08;;;;;;;44.90;33.97;;;;;;;6.95;100.00;97673.59;2091762;28;20310;-75
2021/11/02 03:49:17;;;;;;;46.83;35.13;;;;;;;6.96;100.00;97680.50;2091878;28;20308;-74
2021/11/02 03:50:26;;;;;;;45.95;34.88;;;;;;;6.96;100.00;97672.53;2088042;28;20238;-75
2021/11/02 03:51:50;;;;;;;47.40;36.05;;;;;;;6.96;100.00;97672.53;2096621;28;20303;-75
2021/11/02 03:55:49;;;;;;;44.03;34.25;;;;;;;7.06;100.00;97678.34;2095986;28;20232;-74
2021/11/02 03:57:07;;;;;;;49.75;34.60;;;;;;;7.05;100.00;97676.78;2097590;28;20699;-74
2021/11/02 03:58:19;;;;;;;47.03;34.25;;;;;;;7.04;100.00;97680.53;2098041;28;20225;-75
2021/11/02 04:24:45;;;;;;;51.70;36.22;;;;;;;6.86;100.00;97675.44;2100166;28;20304;-75
2021/11/02 04:33:26;;;;;;;56.88;37.95;;;;;;;6.79;100.00;97666.06;2091810;28;20224;-75
2021/11/02 05:07:25;;;;;;;57.45;39.20;;;;;;;6.75;100.00;97635.16;2099530;28;20300;-76
2021/11/02 05:09:01;;;;;;;61.60;40.28;;;;;;;6.77;100.00;97630.34;2104890;28;20221;-76
2021/11/02 05:47:31;;;;;;;57.80;41.17;;;;;;;6.62;100.00;97605.03;2104796;28;20239;-73
2021/11/02 05:48:50;;;;;;;59.05;41.10;;;;;;;6.60;100.00;97598.47;2096767;28;20287;-73
2021/11/02 05:50:04;;;;;;;62.90;42.03;;;;;;;6.59;100.00;97605.63;2105007;28;20307;-73
2021/11/02 05:56:45;;;;;;;61.42;41.70;;;;;;;6.58;100.00;97614.66;2058081;28;20259;-73
2021/11/02 05:57:51;;;;;;;61.85;42.22;;;;;;;6.56;100.00;97608.91;2096644;28;20680;-74
2021/11/02 05:59:13;;;;;;;59.13;41.00;;;;;;;6.57;100.00;97613.09;2089499;28;20678;-74
2021/11/02 06:00:17;;;;;;;63.63;41.75;;;;;;;6.58;100.00;97614.66;2090283;28;20549;-75
2021/11/02 06:01:35;;;;;;;62.53;42.45;;;;;;;6.58;100.00;97604.06;2088823;28;20253;-74
2021/11/02 06:02:50;;;;;;;61.05;42.33;;;;;;;6.60;100.00;97611.72;2090625;28;20253;-75
2021/11/02 06:03:57;;;;;;;63.45;41.35;;;;;;;6.61;100.00;97614.06;2096719;28;20256;-74
2021/11/02 06:06:33;;;;;;;58.55;40.42;;;;;;;6.64;100.00;97626.72;2070875;28;20243;-74
2021/11/02 06:07:46;;;;;;;65.05;43.70;;;;;;;6.64;100.00;97621.41;2089643;28;20626;-74
2021/11/02 06:09:06;;;;;;;68.57;44.45;;;;;;;6.64;100.00;97616.09;2103602;28;20217;-74
2021/11/02 06:28:37;;;;;;;57.70;40.50;;;;;;;6.75;100.00;97638.59;2104663;28;20571;-77
2021/11/02 06:29:39;;;;;;;58.55;40.67;;;;;;;6.76;100.00;97642.81;2104546;28;20225;-76
2021/11/02 06:30:46;;;;;;;58.92;42.20;;;;;;;6.70;100.00;97638.75;2104191;28;20308;-77
2021/11/02 06:31:54;;;;;;;59.10;42.10;;;;;;;6.73;100.00;97640.78;2096855;28;20249;-77
2021/11/02 06:33:04;;;;;;;59.92;42.78;;;;;;;6.73;100.00;97643.44;2104646;28;20224;-77
2021/11/02 06:34:12;;;;;;;60.17;42.55;;;;;;;6.74;100.00;97639.69;2104842;28;20217;-77
2021/11/02 06:35:17;;;;;;;55.80;41.50;;;;;;;6.76;100.00;97658.72;2104625;28;20244;-76
2021/11/02 06:38:15;;;;;;;58.80;40.35;;;;;;;6.72;100.00;97652.47;2078568;28;20591;-77
2021/11/02 06:42:41;;;;;;;58.72;40.53;;;;;;;6.75;100.00;97662.44;2070700;28;20320;-76
2021/11/02 06:49:34;;;;;;;53.35;38.75;;;;;;;6.80;100.00;97662.31;2104727;28;20233;-77
2021/11/02 06:58:02;;;;;;;57.40;40.60;;;;;;;6.83;100.00;97662.78;2104501;28;20223;-76
2021/11/02 06:59:32;;;;;;;59.80;38.83;;;;;;;6.83;100.00;97666.22;2103970;28;20221;-77
2021/11/02 07:00:51;;;;;;;61.38;39.25;;;;;;;6.87;100.00;97669.84;2095073;28;20313;-76
2021/11/02 07:15:55;;;;;;;52.83;38.03;;;;;;;7.01;100.00;97664.44;2096032;28;20268;-75
2021/11/02 07:17:12;;;;;;;53.45;38.92;;;;;;;7.02;100.00;97666.00;2095712;28;20272;-76
2021/11/02 07:18:17;;;;;;;56.08;38.67;;;;;;;7.00;100.00;97662.88;2089752;28;20302;-77
2021/11/02 07:19:26;;;;;;;57.72;40.42;;;;;;;7.01;100.00;97664.44;2088251;28;20227;-76
2021/11/02 07:20:37;;;;;;;56.05;39.30;;;;;;;7.00;100.00;97662.88;2097327;28;20284;-77
2021/11/02 07:21:46;;;;;;;59.03;40.28;;;;;;;7.04;100.00;97661.19;2095661;28;20291;-76
2021/11/02 07:22:59;;;;;;;59.08;39.80;;;;;;;7.05;100.00;97666.19;2096056;28;20303;-78
2021/11/02 07:24:04;;;;;;;57.85;41.25;;;;;;;7.13;100.00;97658.56;2096655;28;20560;-78
2021/11/02 07:25:15;;;;;;;55.85;40.75;;;;;;;7.14;100.00;97668.84;2096601;28;20700;-76
2021/11/02 07:26:37;;;;;;;56.55;39.85;;;;;;;7.15;100.00;97664.34;2095787;28;20226;-80
2021/11/02 07:28:06;;;;;;;57.38;38.80;;;;;;;7.16;100.00;97666.66;2091794;28;20615;-78
2021/11/02 08:46:05;;;;;;;78.72;51.05;;;;;;;7.46;100.00;97659.72;2105397;28;20229;-74
2021/11/02 08:47:09;;;;;;;74.18;47.78;;;;;;;7.51;100.00;97658.78;2096655;28;20218;-74
2021/11/02 08:48:11;;;;;;;76.82;50.10;;;;;;;7.46;100.00;97653.63;2098786;28;20217;-74
2021/11/02 08:49:12;;;;;;;80.22;51.45;;;;;;;7.51;100.00;97653.50;2097308;28;20710;-76
2021/11/02 08:50:19;;;;;;;72.77;50.73;;;;;;;7.44;100.00;97653.16;2097500;28;20276;-74
2021/11/02 08:51:22;;;;;;;72.00;51.47;;;;;;;7.43;100.00;97656.91;2096782;28;20467;-75
2021/11/02 08:52:24;;;;;;;75.70;51.85;;;;;;;7.41;100.00;97653.78;2096893;28;20222;-75
2021/11/02 08:53:27;;;;;;;86.55;52.28;;;;;;;7.37;100.00;97649.06;2097272;28;20229;-75
2021/11/02 08:54:29;;;;;;;78.57;52.45;;;;;;;7.41;100.00;97648.47;2097093;28;20218;-75
2021/11/02 08:55:31;;;;;;;77.95;53.63;;;;;;;7.41;100.00;97653.78;2088948;28;20271;-75
2021/11/02 08:56:37;;;;;;;82.55;53.15;;;;;;;7.40;100.00;97649.56;2097358;28;20233;-73
2021/11/02 08:57:39;;;;;;;76.53;52.38;;;;;;;7.44;100.00;97655.81;2105160;28;20230;-73
2021/11/02 08:58:44;;;;;;;79.95;53.92;;;;;;;7.46;100.00;97664.25;2105794;28;20287;-75
2021/11/02 08:59:46;;;;;;;79.10;53.40;;;;;;;7.51;100.00;97656.13;2105592;28;20304;-75
2021/11/02 09:00:47;;;;;;;82.35;52.80;;;;;;;7.51;100.00;97656.91;2105551;28;20209;-75
2021/11/02 09:01:56;;;;;;;80.33;53.57;;;;;;;7.56;100.00;97663.97;2098228;28;20301;-75
2021/11/02 09:03:12;;;;;;;77.88;54.30;;;;;;;7.56;100.00;97663.97;2104707;28;20261;-75
2021/11/02 09:04:14;;;;;;;80.97;54.28;;;;;;;7.58;100.00;97659.91;2098440;28;20278;-74
2021/11/02 09:05:20;;;;;;;80.90;54.65;;;;;;;7.59;100.00;97663.34;2105613;28;20714;-74
2021/11/02 09:06:27;;;;;;;78.00;54.60;;;;;;;7.60;100.00;97670.97;2097952;28;20217;-72
2021/11/02 09:07:29;;;;;;;80.50;55.22;;;;;;;7.62;100.00;97660.84;2097701;28;20280;-72
2021/11/02 09:08:40;;;;;;;84.78;56.63;;;;;;;7.65;100.00;97659.44;2097867;28;20222;-72
2021/11/02 09:09:41;;;;;;;82.30;54.08;;;;;;;7.69;100.00;97664.91;2096934;28;20226;-72
2021/11/02 09:10:46;;;;;;;83.25;55.03;;;;;;;7.68;100.00;97669.44;2096887;28;20320;-72
2021/11/02 09:11:54;;;;;;;78.72;52.47;;;;;;;7.69;100.00;97668.34;2097261;28;20253;-72
2021/11/02 09:12:58;;;;;;;73.55;51.08;;;;;;;7.67;100.00;97670.53;2103945;28;20274;-72
2021/11/02 09:14:00;;;;;;;75.53;52.53;;;;;;;7.69;100.00;97667.56;2104938;28;20221;-72
2021/11/02 09:15:05;;;;;;;80.00;55.28;;;;;;;7.67;100.00;97665.22;2096940;28;20268;-71
2021/11/02 09:16:08;;;;;;;85.63;55.10;;;;;;;7.70;100.00;97666.47;2090486;28;20218;-73
2021/11/02 09:17:11;;;;;;;86.05;54.65;;;;;;;7.70;100.00;97666.47;2096685;28;20233;-72
2021/11/02 09:18:13;;;;;;;77.07;53.92;;;;;;;7.70;100.00;97667.25;2097235;28;20226;-72
2021/11/02 09:19:15;;;;;;;77.78;52.75;;;;;;;7.71;100.00;97668.03;2096325;28;20568;-72
2021/11/02 09:20:17;;;;;;;77.25;53.50;;;;;;;7.71;100.00;97671.47;2105226;28;20247;-72
2021/11/02 09:21:21;;;;;;;79.65;53.72;;;;;;;7.70;100.00;97669.91;2104980;28;20243;-77
2021/11/02 09:22:22;;;;;;;74.88;53.08;;;;;;;7.70;100.00;97674.44;2096827;28;20222;-74
2021/11/02 09:23:26;;;;;;;75.80;53.92;;;;;;;7.72;100.00;97669.59;2096918;28;20695;-73
2021/11/02 09:24:27;;;;;;;78.13;54.47;;;;;;;7.73;100.00;97674.59;2097455;28;20230;-78
2021/11/02 09:25:30;;;;;;;79.03;53.08;;;;;;;7.74;100.00;97673.50;2097438;28;20279;-73
2021/11/02 09:26:32;;;;;;;77.20;52.38;;;;;;;7.73;100.00;97669.28;2097116;28;20222;-81
2021/11/02 09:27:35;;;;;;;77.38;54.28;;;;;;;7.75;100.00;97672.41;2105609;28;20229;-73
2021/11/02 09:28:38;;;;;;;82.78;54.55;;;;;;;7.74;100.00;97670.06;2113098;28;20690;-74